sensor_id;sensor_type;location;lat;lon;timestamp;pressure;altitude;pressure_sealevel;temperature;humidity
53041;BME280;39326;42.650;23.248;2023-02-11T00:01:35;94088.06;;;-4.43;57.66
53041;BME280;39326;42.650;23.248;2023-02-11T00:04:01;94085.59;;;-4.22;56.86
53041;BME280;39326;42.650;23.248;2023-02-11T00:06:29;94086.88;;;-4.25;56.74
53041;BME280;39326;42.650;23.248;2023-02-11T00:08:55;94089.50;;;-4.25;55.95
53041;BME280;39326;42.650;23.248;2023-02-11T00:11:22;94089.50;;;-4.20;56.00
53041;BME280;39326;42.650;23.248;2023-02-11T00:13:49;94085.63;;;-4.17;56.00
53041;BME280;39326;42.650;23.248;2023-02-11T00:16:19;94091.28;;;-4.31;55.78
53041;BME280;39326;42.650;23.248;2023-02-11T00:18:44;94093.72;;;-4.56;56.92
53041;BME280;39326;42.650;23.248;2023-02-11T00:21:16;94088.81;;;-4.47;56.04
53041;BME280;39326;42.650;23.248;2023-02-11T00:23:42;94090.50;;;-4.31;55.55
53041;BME280;39326;42.650;23.248;2023-02-11T00:26:22;94092.81;;;-4.35;55.69
53041;BME280;39326;42.650;23.248;2023-02-11T00:28:50;94094.53;;;-4.45;56.15
53041;BME280;39326;42.650;23.248;2023-02-11T00:31:17;94103.00;;;-4.65;57.32
53041;BME280;39326;42.650;23.248;2023-02-11T00:33:43;94092.91;;;-4.57;56.80
53041;BME280;39326;42.650;23.248;2023-02-11T00:36:14;94097.66;;;-4.48;56.55
53041;BME280;39326;42.650;23.248;2023-02-11T00:38:42;94096.94;;;-4.44;56.21
53041;BME280;39326;42.650;23.248;2023-02-11T00:41:08;94082.31;;;-4.50;56.70
53041;BME280;39326;42.650;23.248;2023-02-11T00:43:34;94072.91;;;-4.56;56.40
53041;BME280;39326;42.650;23.248;2023-02-11T00:45:59;94078.94;;;-4.45;55.27
53041;BME280;39326;42.650;23.248;2023-02-11T00:48:25;94079.44;;;-4.48;55.23
53041;BME280;39326;42.650;23.248;2023-02-11T00:50:50;94073.06;;;-4.68;55.84
53041;BME280;39326;42.650;23.248;2023-02-11T00:53:16;94074.09;;;-4.69;56.19
53041;BME280;39326;42.650;23.248;2023-02-11T00:55:41;94072.91;;;-4.88;56.84
53041;BME280;39326;42.650;23.248;2023-02-11T00:58:06;94075.22;;;-4.92;56.47
53041;BME280;39326;42.650;23.248;2023-02-11T01:00:32;94074.75;;;-4.84;56.56
53041;BME280;39326;42.650;23.248;2023-02-11T01:02:57;94074.06;;;-4.74;56.19
53041;BME280;39326;42.650;23.248;2023-02-11T01:05:23;94069.06;;;-4.81;56.34
53041;BME280;39326;42.650;23.248;2023-02-11T01:07:48;94074.69;;;-4.94;56.17
53041;BME280;39326;42.650;23.248;2023-02-11T01:10:14;94071.09;;;-4.88;56.48
53041;BME280;39326;42.650;23.248;2023-02-11T01:12:39;94072.41;;;-4.85;55.84
53041;BME280;39326;42.650;23.248;2023-02-11T01:15:07;94060.28;;;-4.74;55.58
53041;BME280;39326;42.650;23.248;2023-02-11T01:17:34;94059.84;;;-4.98;55.97
53041;BME280;39326;42.650;23.248;2023-02-11T01:20:03;94064.09;;;-4.82;55.84
53041;BME280;39326;42.650;23.248;2023-02-11T01:22:29;94062.53;;;-4.83;56.42
53041;BME280;39326;42.650;23.248;2023-02-11T01:24:54;94057.84;;;-4.86;55.53
53041;BME280;39326;42.650;23.248;2023-02-11T01:27:19;94056.06;;;-4.81;55.25
53041;BME280;39326;42.650;23.248;2023-02-11T01:29:45;94060.63;;;-4.98;56.19
53041;BME280;39326;42.650;23.248;2023-02-11T01:32:10;94066.97;;;-4.84;54.86
53041;BME280;39326;42.650;23.248;2023-02-11T01:34:36;94060.38;;;-4.96;55.35
53041;BME280;39326;42.650;23.248;2023-02-11T01:37:01;94060.97;;;-5.16;56.33
53041;BME280;39326;42.650;23.248;2023-02-11T01:39:26;94056.72;;;-4.95;55.46
53041;BME280;39326;42.650;23.248;2023-02-11T01:41:52;94047.63;;;-4.98;55.34
53041;BME280;39326;42.650;23.248;2023-02-11T01:44:37;94048.59;;;-5.04;55.90
53041;BME280;39326;42.650;23.248;2023-02-11T01:47:04;94047.47;;;-5.13;56.37
53041;BME280;39326;42.650;23.248;2023-02-11T01:49:32;94036.28;;;-5.19;56.74
53041;BME280;39326;42.650;23.248;2023-02-11T01:52:03;94048.50;;;-5.19;56.14
53041;BME280;39326;42.650;23.248;2023-02-11T01:54:32;94041.75;;;-5.15;56.43
53041;BME280;39326;42.650;23.248;2023-02-11T01:57:21;94041.69;;;-5.20;56.81
53041;BME280;39326;42.650;23.248;2023-02-11T02:00:17;94042.78;;;-5.16;55.93
53041;BME280;39326;42.650;23.248;2023-02-11T02:08:22;94041.50;;;-5.14;55.56
53041;BME280;39326;42.650;23.248;2023-02-11T02:10:54;94041.69;;;-5.25;55.52
53041;BME280;39326;42.650;23.248;2023-02-11T02:13:24;94046.16;;;-5.16;55.69
53041;BME280;39326;42.650;23.248;2023-02-11T02:15:55;94051.78;;;-5.29;56.03
53041;BME280;39326;42.650;23.248;2023-02-11T02:38:11;94049.22;;;-5.51;56.18
53041;BME280;39326;42.650;23.248;2023-02-11T02:41:07;94043.22;;;-5.51;56.36
53041;BME280;39326;42.650;23.248;2023-02-11T02:43:36;94049.13;;;-5.61;55.27
53041;BME280;39326;42.650;23.248;2023-02-11T02:46:19;94038.53;;;-5.54;56.09
53041;BME280;39326;42.650;23.248;2023-02-11T02:48:45;94034.66;;;-5.52;55.94
53041;BME280;39326;42.650;23.248;2023-02-11T03:05:22;94039.84;;;-5.52;54.77
53041;BME280;39326;42.650;23.248;2023-02-11T03:10:43;94047.72;;;-5.47;55.21
53041;BME280;39326;42.650;23.248;2023-02-11T03:13:10;94014.84;;;-5.58;54.41
53041;BME280;39326;42.650;23.248;2023-02-11T03:15:42;94031.44;;;-5.37;54.34
53041;BME280;39326;42.650;23.248;2023-02-11T03:18:11;94041.56;;;-5.36;54.29
53041;BME280;39326;42.650;23.248;2023-02-11T03:20:39;94044.63;;;-5.44;55.04
53041;BME280;39326;42.650;23.248;2023-02-11T03:23:28;94043.59;;;-5.43;54.92
53041;BME280;39326;42.650;23.248;2023-02-11T03:26:29;94038.09;;;-5.46;55.64
53041;BME280;39326;42.650;23.248;2023-02-11T03:31:34;94038.25;;;-5.58;54.42
53041;BME280;39326;42.650;23.248;2023-02-11T03:34:09;94045.75;;;-5.62;54.70
53041;BME280;39326;42.650;23.248;2023-02-11T03:37:17;94034.53;;;-5.67;54.86
53041;BME280;39326;42.650;23.248;2023-02-11T03:39:49;94037.97;;;-5.62;54.78
53041;BME280;39326;42.650;23.248;2023-02-11T03:42:16;94034.31;;;-5.61;53.90
53041;BME280;39326;42.650;23.248;2023-02-11T03:44:48;94038.34;;;-5.75;54.74
53041;BME280;39326;42.650;23.248;2023-02-11T03:47:18;94024.84;;;-5.72;54.71
53041;BME280;39326;42.650;23.248;2023-02-11T03:49:46;94029.66;;;-5.58;53.53
53041;BME280;39326;42.650;23.248;2023-02-11T03:52:15;94026.66;;;-5.45;52.69
53041;BME280;39326;42.650;23.248;2023-02-11T03:54:42;94025.97;;;-5.36;51.29
53041;BME280;39326;42.650;23.248;2023-02-11T03:57:10;94023.19;;;-5.29;51.21
53041;BME280;39326;42.650;23.248;2023-02-11T03:59:56;94026.88;;;-5.52;51.69
53041;BME280;39326;42.650;23.248;2023-02-11T04:02:33;94033.19;;;-5.43;51.50
53041;BME280;39326;42.650;23.248;2023-02-11T04:04:59;94033.09;;;-5.53;52.41
53041;BME280;39326;42.650;23.248;2023-02-11T04:07:25;94028.44;;;-5.51;51.90
53041;BME280;39326;42.650;23.248;2023-02-11T04:09:52;94036.06;;;-5.44;51.87
53041;BME280;39326;42.650;23.248;2023-02-11T04:12:18;94023.94;;;-5.61;51.38
53041;BME280;39326;42.650;23.248;2023-02-11T04:14:43;94030.28;;;-5.46;51.74
53041;BME280;39326;42.650;23.248;2023-02-11T04:17:09;94025.97;;;-5.36;50.82
53041;BME280;39326;42.650;23.248;2023-02-11T04:19:34;94025.59;;;-5.49;51.07
53041;BME280;39326;42.650;23.248;2023-02-11T04:22:00;94034.19;;;-5.76;52.66
53041;BME280;39326;42.650;23.248;2023-02-11T04:24:26;94035.94;;;-5.54;51.73
53041;BME280;39326;42.650;23.248;2023-02-11T04:26:51;94036.97;;;-5.55;51.24
53041;BME280;39326;42.650;23.248;2023-02-11T04:29:17;94027.06;;;-5.58;51.81
53041;BME280;39326;42.650;23.248;2023-02-11T04:31:43;94026.22;;;-5.64;51.70
53041;BME280;39326;42.650;23.248;2023-02-11T04:34:08;94027.66;;;-5.51;51.86
53041;BME280;39326;42.650;23.248;2023-02-11T04:36:34;94028.19;;;-5.49;51.70
53041;BME280;39326;42.650;23.248;2023-02-11T04:38:59;94029.06;;;-5.39;51.19
53041;BME280;39326;42.650;23.248;2023-02-11T04:41:24;94024.16;;;-5.35;51.31
53041;BME280;39326;42.650;23.248;2023-02-11T04:43:50;94026.34;;;-5.54;51.25
53041;BME280;39326;42.650;23.248;2023-02-11T04:46:15;94020.25;;;-5.65;51.31
53041;BME280;39326;42.650;23.248;2023-02-11T04:48:41;94017.97;;;-5.61;51.49
53041;BME280;39326;42.650;23.248;2023-02-11T04:51:06;94011.97;;;-5.62;51.74
53041;BME280;39326;42.650;23.248;2023-02-11T04:53:31;94016.94;;;-5.60;51.46
53041;BME280;39326;42.650;23.248;2023-02-11T04:55:57;94022.06;;;-5.65;52.43
53041;BME280;39326;42.650;23.248;2023-02-11T04:58:22;94015.06;;;-5.65;51.89
53041;BME280;39326;42.650;23.248;2023-02-11T05:00:48;94021.63;;;-5.84;52.24
53041;BME280;39326;42.650;23.248;2023-02-11T05:03:14;94020.16;;;-5.75;52.12
53041;BME280;39326;42.650;23.248;2023-02-11T05:05:41;94010.47;;;-6.06;53.11
53041;BME280;39326;42.650;23.248;2023-02-11T05:08:07;94012.78;;;-6.10;53.65
53041;BME280;39326;42.650;23.248;2023-02-11T05:10:33;94005.94;;;-5.94;53.12
53041;BME280;39326;42.650;23.248;2023-02-11T05:12:59;94009.53;;;-5.95;53.33
53041;BME280;39326;42.650;23.248;2023-02-11T05:15:25;94005.19;;;-5.90;52.61
53041;BME280;39326;42.650;23.248;2023-02-11T05:17:50;93991.47;;;-5.85;52.92
53041;BME280;39326;42.650;23.248;2023-02-11T05:20:16;93990.31;;;-5.99;53.01
53041;BME280;39326;42.650;23.248;2023-02-11T05:22:41;94001.66;;;-6.05;53.57
53041;BME280;39326;42.650;23.248;2023-02-11T05:25:07;94005.47;;;-6.13;53.65
53041;BME280;39326;42.650;23.248;2023-02-11T05:27:32;94007.81;;;-6.11;53.71
53041;BME280;39326;42.650;23.248;2023-02-11T05:29:58;94015.88;;;-6.13;54.28
53041;BME280;39326;42.650;23.248;2023-02-11T05:32:23;94006.28;;;-6.07;54.03
53041;BME280;39326;42.650;23.248;2023-02-11T05:34:49;94007.69;;;-6.00;54.39
53041;BME280;39326;42.650;23.248;2023-02-11T05:37:14;94016.38;;;-5.89;53.76
53041;BME280;39326;42.650;23.248;2023-02-11T05:39:40;94006.53;;;-5.87;54.19
53041;BME280;39326;42.650;23.248;2023-02-11T05:42:06;94005.00;;;-5.83;54.06
53041;BME280;39326;42.650;23.248;2023-02-11T05:44:31;94002.66;;;-5.84;54.43
53041;BME280;39326;42.650;23.248;2023-02-11T05:46:56;93997.97;;;-5.88;54.65
53041;BME280;39326;42.650;23.248;2023-02-11T05:49:22;93992.00;;;-5.88;54.43
53041;BME280;39326;42.650;23.248;2023-02-11T05:51:47;93998.16;;;-5.94;54.42
53041;BME280;39326;42.650;23.248;2023-02-11T05:54:13;94007.50;;;-5.93;53.93
53041;BME280;39326;42.650;23.248;2023-02-11T05:56:38;94008.53;;;-5.94;54.29
53041;BME280;39326;42.650;23.248;2023-02-11T05:59:04;94006.16;;;-5.96;54.55
53041;BME280;39326;42.650;23.248;2023-02-11T06:01:29;94002.38;;;-5.88;53.89
53041;BME280;39326;42.650;23.248;2023-02-11T06:03:55;94008.72;;;-6.01;54.53
53041;BME280;39326;42.650;23.248;2023-02-11T06:06:20;94010.88;;;-5.93;54.42
53041;BME280;39326;42.650;23.248;2023-02-11T06:08:45;94012.19;;;-5.90;54.95
53041;BME280;39326;42.650;23.248;2023-02-11T06:11:13;94012.84;;;-6.05;55.31
53041;BME280;39326;42.650;23.248;2023-02-11T06:13:39;94017.13;;;-6.16;55.70
53041;BME280;39326;42.650;23.248;2023-02-11T06:16:04;94010.44;;;-5.84;54.87
53041;BME280;39326;42.650;23.248;2023-02-11T06:18:30;94016.53;;;-5.74;54.54
53041;BME280;39326;42.650;23.248;2023-02-11T06:20:58;94009.84;;;-5.92;55.43
53041;BME280;39326;42.650;23.248;2023-02-11T06:23:24;94022.97;;;-5.76;54.71
53041;BME280;39326;42.650;23.248;2023-02-11T06:25:50;94015.63;;;-5.84;54.68
53041;BME280;39326;42.650;23.248;2023-02-11T06:28:16;94015.84;;;-5.91;54.76
53041;BME280;39326;42.650;23.248;2023-02-11T06:30:42;94011.94;;;-5.67;54.37
53041;BME280;39326;42.650;23.248;2023-02-11T06:33:07;94021.34;;;-5.61;54.14
53041;BME280;39326;42.650;23.248;2023-02-11T06:35:33;94019.44;;;-5.43;53.93
53041;BME280;39326;42.650;23.248;2023-02-11T06:38:00;94011.94;;;-5.35;53.36
53041;BME280;39326;42.650;23.248;2023-02-11T06:40:26;94017.69;;;-5.33;54.02
53041;BME280;39326;42.650;23.248;2023-02-11T06:42:51;94015.75;;;-5.47;54.15
53041;BME280;39326;42.650;23.248;2023-02-11T06:45:16;94024.13;;;-5.40;53.73
53041;BME280;39326;42.650;23.248;2023-02-11T06:47:42;94027.38;;;-5.55;53.06
53041;BME280;39326;42.650;23.248;2023-02-11T06:50:11;94028.91;;;-5.27;53.34
53041;BME280;39326;42.650;23.248;2023-02-11T06:52:36;94022.72;;;-5.21;52.94
53041;BME280;39326;42.650;23.248;2023-02-11T06:55:02;94028.59;;;-5.03;53.25
53041;BME280;39326;42.650;23.248;2023-02-11T06:57:32;94030.88;;;-5.12;52.98
53041;BME280;39326;42.650;23.248;2023-02-11T06:59:57;94028.91;;;-4.95;53.17
53041;BME280;39326;42.650;23.248;2023-02-11T07:02:22;94027.66;;;-4.87;52.54
53041;BME280;39326;42.650;23.248;2023-02-11T07:04:48;94037.22;;;-4.98;53.00
53041;BME280;39326;42.650;23.248;2023-02-11T07:07:13;94036.22;;;-4.92;52.88
53041;BME280;39326;42.650;23.248;2023-02-11T07:09:39;94033.66;;;-4.87;53.04
53041;BME280;39326;42.650;23.248;2023-02-11T07:12:04;94024.28;;;-4.88;53.52
53041;BME280;39326;42.650;23.248;2023-02-11T07:14:30;94029.28;;;-4.81;54.05
53041;BME280;39326;42.650;23.248;2023-02-11T07:16:55;94022.09;;;-4.64;52.78
53041;BME280;39326;42.650;23.248;2023-02-11T07:19:21;94021.84;;;-4.57;52.57
53041;BME280;39326;42.650;23.248;2023-02-11T07:21:46;94017.69;;;-4.58;52.89
53041;BME280;39326;42.650;23.248;2023-02-11T07:24:13;94014.59;;;-4.55;52.26
53041;BME280;39326;42.650;23.248;2023-02-11T07:26:38;94007.53;;;-4.60;52.54
53041;BME280;39326;42.650;23.248;2023-02-11T07:29:04;94001.16;;;-4.32;52.19
53041;BME280;39326;42.650;23.248;2023-02-11T07:31:29;94010.78;;;-4.32;51.69
53041;BME280;39326;42.650;23.248;2023-02-11T07:33:57;94010.09;;;-4.17;51.60
53041;BME280;39326;42.650;23.248;2023-02-11T07:36:23;93997.63;;;-4.10;50.98
53041;BME280;39326;42.650;23.248;2023-02-11T07:38:49;93991.66;;;-3.95;50.91
53041;BME280;39326;42.650;23.248;2023-02-11T07:41:17;93993.00;;;-3.83;50.24
53041;BME280;39326;42.650;23.248;2023-02-11T07:43:44;93989.16;;;-3.60;48.79
53041;BME280;39326;42.650;23.248;2023-02-11T07:46:15;93982.38;;;-3.51;49.55
53041;BME280;39326;42.650;23.248;2023-02-11T07:48:41;93983.72;;;-3.43;48.90
53041;BME280;39326;42.650;23.248;2023-02-11T07:51:23;93987.06;;;-3.53;48.34
53041;BME280;39326;42.650;23.248;2023-02-11T07:53:49;93990.22;;;-3.40;47.80
53041;BME280;39326;42.650;23.248;2023-02-11T07:56:17;93993.59;;;-3.45;47.94
53041;BME280;39326;42.650;23.248;2023-02-11T07:58:43;93989.19;;;-3.50;48.92
53041;BME280;39326;42.650;23.248;2023-02-11T08:01:15;93992.28;;;-3.37;49.48
53041;BME280;39326;42.650;23.248;2023-02-11T08:03:41;93995.19;;;-3.24;49.45
53041;BME280;39326;42.650;23.248;2023-02-11T08:06:12;93996.47;;;-3.01;48.88
53041;BME280;39326;42.650;23.248;2023-02-11T08:08:38;93991.00;;;-2.89;48.64
53041;BME280;39326;42.650;23.248;2023-02-11T08:11:24;93992.81;;;-2.90;47.71
53041;BME280;39326;42.650;23.248;2023-02-11T08:13:51;93997.50;;;-2.81;48.25
53041;BME280;39326;42.650;23.248;2023-02-11T08:16:23;93983.69;;;-2.87;48.40
53041;BME280;39326;42.650;23.248;2023-02-11T08:18:51;93990.16;;;-2.54;48.05
53041;BME280;39326;42.650;23.248;2023-02-11T08:21:17;93983.00;;;-2.18;47.83
53041;BME280;39326;42.650;23.248;2023-02-11T08:23:43;93985.59;;;-2.13;47.33
53041;BME280;39326;42.650;23.248;2023-02-11T08:26:12;93984.41;;;-1.81;47.77
53041;BME280;39326;42.650;23.248;2023-02-11T08:28:41;93998.47;;;-1.67;47.36
53041;BME280;39326;42.650;23.248;2023-02-11T08:31:13;93989.19;;;-1.49;46.59
53041;BME280;39326;42.650;23.248;2023-02-11T08:33:38;93980.84;;;-1.51;47.65
53041;BME280;39326;42.650;23.248;2023-02-11T08:36:10;93980.31;;;-1.48;47.42
53041;BME280;39326;42.650;23.248;2023-02-11T08:38:36;93983.53;;;-1.22;47.04
53041;BME280;39326;42.650;23.248;2023-02-11T08:41:02;93979.50;;;-0.80;46.74
53041;BME280;39326;42.650;23.248;2023-02-11T08:43:28;93978.91;;;-1.01;46.29
53041;BME280;39326;42.650;23.248;2023-02-11T08:45:53;93970.19;;;-0.91;45.90
53041;BME280;39326;42.650;23.248;2023-02-11T08:48:19;93983.06;;;-0.66;45.92
53041;BME280;39326;42.650;23.248;2023-02-11T08:50:44;93981.41;;;-0.33;45.95
53041;BME280;39326;42.650;23.248;2023-02-11T08:53:09;93984.09;;;-0.14;45.09
53041;BME280;39326;42.650;23.248;2023-02-11T08:55:35;93987.16;;;-0.31;44.36
53041;BME280;39326;42.650;23.248;2023-02-11T08:58:00;93991.41;;;-0.35;44.93
53041;BME280;39326;42.650;23.248;2023-02-11T09:00:26;93990.72;;;-0.22;45.11
53041;BME280;39326;42.650;23.248;2023-02-11T09:02:51;93987.38;;;-0.27;44.26
53041;BME280;39326;42.650;23.248;2023-02-11T09:05:17;93981.06;;;0.41;44.77
53041;BME280;39326;42.650;23.248;2023-02-11T09:07:43;93984.50;;;0.93;44.67
53041;BME280;39326;42.650;23.248;2023-02-11T09:10:08;93982.31;;;1.46;44.00
53041;BME280;39326;42.650;23.248;2023-02-11T09:12:34;93983.13;;;1.74;44.02
53041;BME280;39326;42.650;23.248;2023-02-11T09:14:59;93981.97;;;1.66;42.08
53041;BME280;39326;42.650;23.248;2023-02-11T09:17:25;93976.66;;;1.53;41.00
53041;BME280;39326;42.650;23.248;2023-02-11T09:19:50;93982.03;;;1.15;42.40
53041;BME280;39326;42.650;23.248;2023-02-11T09:22:16;93978.91;;;0.99;42.48
53041;BME280;39326;42.650;23.248;2023-02-11T09:24:41;93978.13;;;0.99;42.27
53041;BME280;39326;42.650;23.248;2023-02-11T09:27:06;93964.66;;;0.68;42.59
53041;BME280;39326;42.650;23.248;2023-02-11T09:29:32;93965.22;;;1.62;42.42
53041;BME280;39326;42.650;23.248;2023-02-11T09:31:57;93963.09;;;1.18;42.48
53041;BME280;39326;42.650;23.248;2023-02-11T09:34:23;93962.50;;;1.67;42.08
53041;BME280;39326;42.650;23.248;2023-02-11T09:36:48;93961.41;;;2.10;41.97
53041;BME280;39326;42.650;23.248;2023-02-11T09:39:16;93961.66;;;2.36;39.96
53041;BME280;39326;42.650;23.248;2023-02-11T09:41:58;93959.63;;;2.33;40.87
53041;BME280;39326;42.650;23.248;2023-02-11T09:44:31;93954.25;;;2.74;40.69
53041;BME280;39326;42.650;23.248;2023-02-11T09:47:18;93954.31;;;2.10;39.12
53041;BME280;39326;42.650;23.248;2023-02-11T09:49:49;93946.38;;;2.24;40.12
53041;BME280;39326;42.650;23.248;2023-02-11T09:52:32;93942.31;;;2.18;40.00
53041;BME280;39326;42.650;23.248;2023-02-11T09:55:02;93936.50;;;2.43;40.95
53041;BME280;39326;42.650;23.248;2023-02-11T09:57:33;93933.38;;;1.91;40.25
53041;BME280;39326;42.650;23.248;2023-02-11T10:00:00;93925.53;;;2.14;39.57
53041;BME280;39326;42.650;23.248;2023-02-11T10:02:35;93924.69;;;2.41;39.97
53041;BME280;39326;42.650;23.248;2023-02-11T10:05:19;93924.88;;;2.44;38.67
53041;BME280;39326;42.650;23.248;2023-02-11T10:08:12;93909.56;;;2.46;37.76
53041;BME280;39326;42.650;23.248;2023-02-11T10:13:13;93898.94;;;2.74;38.50
53041;BME280;39326;42.650;23.248;2023-02-11T10:15:44;93899.72;;;2.74;38.65
53041;BME280;39326;42.650;23.248;2023-02-11T10:23:21;93881.03;;;3.86;36.84
53041;BME280;39326;42.650;23.248;2023-02-11T10:25:50;93880.13;;;3.51;36.93
53041;BME280;39326;42.650;23.248;2023-02-11T10:28:33;93866.69;;;3.70;36.60
53041;BME280;39326;42.650;23.248;2023-02-11T10:33:53;93837.16;;;3.59;35.39
53041;BME280;39326;42.650;23.248;2023-02-11T10:36:24;93836.06;;;3.60;36.79
53041;BME280;39326;42.650;23.248;2023-02-11T10:38:50;93838.75;;;3.69;37.35
53041;BME280;39326;42.650;23.248;2023-02-11T10:41:20;93829.78;;;3.96;36.50
53041;BME280;39326;42.650;23.248;2023-02-11T10:43:47;93826.44;;;3.47;36.42
53041;BME280;39326;42.650;23.248;2023-02-11T10:46:19;93815.53;;;3.31;36.66
53041;BME280;39326;42.650;23.248;2023-02-11T10:51:23;93817.97;;;3.76;36.88
53041;BME280;39326;42.650;23.248;2023-02-11T10:54:09;93820.03;;;4.05;36.83
53041;BME280;39326;42.650;23.248;2023-02-11T10:56:47;93807.09;;;3.78;35.31
53041;BME280;39326;42.650;23.248;2023-02-11T10:59:26;93815.81;;;3.87;35.79
53041;BME280;39326;42.650;23.248;2023-02-11T11:01:56;93807.16;;;4.56;36.01
53041;BME280;39326;42.650;23.248;2023-02-11T11:10:07;93798.44;;;4.03;35.89
53041;BME280;39326;42.650;23.248;2023-02-11T11:12:49;93794.41;;;3.80;37.09
53041;BME280;39326;42.650;23.248;2023-02-11T11:17:44;93790.97;;;3.71;36.79
53041;BME280;39326;42.650;23.248;2023-02-11T11:20:26;93789.41;;;3.61;35.83
53041;BME280;39326;42.650;23.248;2023-02-11T11:23:08;93778.03;;;3.43;36.40
53041;BME280;39326;42.650;23.248;2023-02-11T11:25:37;93789.09;;;3.71;38.24
53041;BME280;39326;42.650;23.248;2023-02-11T11:28:03;93788.19;;;3.84;36.61
53041;BME280;39326;42.650;23.248;2023-02-11T11:30:37;93786.50;;;4.40;35.67
53041;BME280;39326;42.650;23.248;2023-02-11T11:33:18;93788.38;;;4.23;35.58
53041;BME280;39326;42.650;23.248;2023-02-11T11:35:58;93776.84;;;4.53;36.04
53041;BME280;39326;42.650;23.248;2023-02-11T11:38:26;93773.28;;;4.40;36.11
53041;BME280;39326;42.650;23.248;2023-02-11T11:41:16;93774.22;;;4.36;35.98
53041;BME280;39326;42.650;23.248;2023-02-11T11:46:31;93774.03;;;5.14;36.06
53041;BME280;39326;42.650;23.248;2023-02-11T11:49:44;93770.88;;;4.82;34.99
53041;BME280;39326;42.650;23.248;2023-02-11T11:54:34;93761.44;;;5.70;35.52
53041;BME280;39326;42.650;23.248;2023-02-11T11:57:10;93757.19;;;6.52;33.92
53041;BME280;39326;42.650;23.248;2023-02-11T11:59:36;93758.81;;;6.66;34.56
53041;BME280;39326;42.650;23.248;2023-02-11T12:02:38;93752.19;;;6.39;33.73
53041;BME280;39326;42.650;23.248;2023-02-11T12:05:21;93750.22;;;6.81;33.69
53041;BME280;39326;42.650;23.248;2023-02-11T12:13:41;93735.97;;;5.36;33.63
53041;BME280;39326;42.650;23.248;2023-02-11T12:16:34;93729.03;;;6.15;34.00
53041;BME280;39326;42.650;23.248;2023-02-11T12:25:08;93712.28;;;5.69;33.75
53041;BME280;39326;42.650;23.248;2023-02-11T12:39:21;93696.69;;;5.46;32.17
53041;BME280;39326;42.650;23.248;2023-02-11T12:59:33;93673.13;;;5.95;32.75
53041;BME280;39326;42.650;23.248;2023-02-11T13:02:03;93672.75;;;6.18;32.13
53041;BME280;39326;42.650;23.248;2023-02-11T13:04:38;93673.72;;;6.46;31.61
53041;BME280;39326;42.650;23.248;2023-02-11T13:07:18;93666.63;;;6.38;31.54
53041;BME280;39326;42.650;23.248;2023-02-11T13:09:54;93667.81;;;6.74;31.91
53041;BME280;39326;42.650;23.248;2023-02-11T13:12:22;93659.97;;;6.65;32.00
53041;BME280;39326;42.650;23.248;2023-02-11T13:15:12;93652.72;;;6.41;31.54
53041;BME280;39326;42.650;23.248;2023-02-11T13:18:13;93666.91;;;6.12;31.50
53041;BME280;39326;42.650;23.248;2023-02-11T13:31:52;93666.78;;;6.09;31.95
53041;BME280;39326;42.650;23.248;2023-02-11T13:34:53;93662.13;;;5.52;31.65
53041;BME280;39326;42.650;23.248;2023-02-11T13:39:58;93661.88;;;4.85;33.18
53041;BME280;39326;42.650;23.248;2023-02-11T13:42:24;93653.47;;;4.62;33.83
53041;BME280;39326;42.650;23.248;2023-02-11T13:44:50;93653.91;;;4.09;33.98
53041;BME280;39326;42.650;23.248;2023-02-11T13:47:33;93656.97;;;4.28;34.31
53041;BME280;39326;42.650;23.248;2023-02-11T13:50:03;93650.06;;;3.89;34.49
53041;BME280;39326;42.650;23.248;2023-02-11T13:52:33;93645.25;;;3.48;34.60
53041;BME280;39326;42.650;23.248;2023-02-11T13:57:37;93642.25;;;2.80;36.12
53041;BME280;39326;42.650;23.248;2023-02-11T14:11:47;93626.50;;;2.09;37.33
53041;BME280;39326;42.650;23.248;2023-02-11T14:19:30;93632.63;;;1.96;36.87
53041;BME280;39326;42.650;23.248;2023-02-11T14:22:03;93633.53;;;1.91;37.00
53041;BME280;39326;42.650;23.248;2023-02-11T14:30:19;93631.56;;;1.75;37.44
53041;BME280;39326;42.650;23.248;2023-02-11T14:39:21;93628.72;;;1.62;38.35
53041;BME280;39326;42.650;23.248;2023-02-11T14:41:49;93634.97;;;1.53;38.39
53041;BME280;39326;42.650;23.248;2023-02-11T14:44:21;93638.22;;;1.50;39.06
53041;BME280;39326;42.650;23.248;2023-02-11T14:46:49;93637.28;;;1.32;39.06
53041;BME280;39326;42.650;23.248;2023-02-11T14:49:24;93636.41;;;1.36;39.91
53041;BME280;39326;42.650;23.248;2023-02-11T14:52:15;93635.75;;;1.31;39.27
53041;BME280;39326;42.650;23.248;2023-02-11T14:54:38;93639.09;;;1.45;38.31
53041;BME280;39326;42.650;23.248;2023-02-11T14:57:24;93630.84;;;1.38;39.17
53041;BME280;39326;42.650;23.248;2023-02-11T15:00:04;93639.22;;;1.40;39.19
53041;BME280;39326;42.650;23.248;2023-02-11T15:02:35;93634.97;;;1.30;38.28
53041;BME280;39326;42.650;23.248;2023-02-11T15:07:58;93630.56;;;1.39;37.17
53041;BME280;39326;42.650;23.248;2023-02-11T15:10:51;93631.88;;;1.28;35.43
53041;BME280;39326;42.650;23.248;2023-02-11T15:13:21;93629.41;;;1.32;35.87
53041;BME280;39326;42.650;23.248;2023-02-11T15:15:53;93623.28;;;1.00;34.94
53041;BME280;39326;42.650;23.248;2023-02-11T15:18:22;93620.66;;;1.00;35.52
53041;BME280;39326;42.650;23.248;2023-02-11T15:20:49;93609.97;;;0.97;34.83
53041;BME280;39326;42.650;23.248;2023-02-11T15:23:24;93617.09;;;1.18;34.70
53041;BME280;39326;42.650;23.248;2023-02-11T15:25:50;93597.16;;;1.17;35.55
53041;BME280;39326;42.650;23.248;2023-02-11T15:28:43;93607.06;;;1.21;35.61
53041;BME280;39326;42.650;23.248;2023-02-11T15:31:17;93598.16;;;1.08;35.19
53041;BME280;39326;42.650;23.248;2023-02-11T15:33:43;93592.38;;;0.97;35.26
53041;BME280;39326;42.650;23.248;2023-02-11T15:36:13;93603.38;;;0.85;35.87
53041;BME280;39326;42.650;23.248;2023-02-11T15:38:39;93599.63;;;0.78;36.14
53041;BME280;39326;42.650;23.248;2023-02-11T15:41:06;93586.41;;;0.69;35.90
53041;BME280;39326;42.650;23.248;2023-02-11T15:46:09;93585.66;;;0.55;37.31
53041;BME280;39326;42.650;23.248;2023-02-11T15:48:40;93591.28;;;0.48;37.23
53041;BME280;39326;42.650;23.248;2023-02-11T15:51:36;93594.09;;;0.38;37.90